createdAt,value
2023-04-07T11:43:42.572Z,49.80
2023-04-07T11:48:00.186Z,51.80
2023-04-07T11:52:17.452Z,50.80
2023-04-07T11:56:48.121Z,49.50
2023-04-07T12:01:08.772Z,52.00
2023-04-07T12:05:26.155Z,51.50
2023-04-07T12:09:43.312Z,51.10
2023-04-07T12:14:01.363Z,51.20
2023-04-07T12:18:19.125Z,49.60
2023-04-07T12:22:36.509Z,51.90
2023-04-07T12:26:53.637Z,51.30
2023-04-07T12:31:11.035Z,52.40
2023-04-07T12:35:28.716Z,51.80
2023-04-07T12:39:45.877Z,51.20
2023-04-07T12:44:03.059Z,52.30
2023-04-07T12:48:20.292Z,52.00
2023-04-07T12:52:37.506Z,51.30
2023-04-07T12:56:54.840Z,51.80
2023-04-07T13:01:12.015Z,50.40
2023-04-07T13:05:29.541Z,53.10
2023-04-07T13:09:46.718Z,50.70
2023-04-07T13:14:03.836Z,51.60
2023-04-07T13:18:21.796Z,49.50
2023-04-07T13:22:48.303Z,51.60
2023-04-07T13:27:06.157Z,51.30
2023-04-07T13:31:23.814Z,50.90
2023-04-07T13:35:41.204Z,50.60
2023-04-07T13:39:58.335Z,49.00
2023-04-07T13:44:15.488Z,48.70
2023-04-07T13:48:32.741Z,51.10
2023-04-07T13:52:49.829Z,49.70
2023-04-07T13:57:07.043Z,51.30
2023-04-07T14:01:24.293Z,49.20
2023-04-07T14:05:41.746Z,51.20
2023-04-07T14:09:58.873Z,51.90
2023-04-07T14:14:16.224Z,52.00
2023-04-07T14:18:33.414Z,52.20
2023-04-07T14:22:50.541Z,49.50
2023-04-07T14:27:07.626Z,50.10
2023-04-07T14:31:24.854Z,50.90
2023-04-07T14:35:42.023Z,52.90
2023-04-07T14:40:03.036Z,52.10
2023-04-07T14:44:21.221Z,52.90
2023-04-07T14:48:39.114Z,50.20
2023-04-07T14:52:56.693Z,50.80
2023-04-07T14:57:13.888Z,49.10
2023-04-07T15:01:31.593Z,51.60
2023-04-07T15:05:48.973Z,52.60
2023-04-07T15:10:06.497Z,52.70
2023-04-07T15:14:23.666Z,54.10
2023-04-07T15:18:42.868Z,52.00
2023-04-07T15:23:01.181Z,53.30
2023-04-07T15:27:18.453Z,53.60
2023-04-07T15:31:35.811Z,53.90
2023-04-07T15:35:53.511Z,55.10
2023-04-07T15:40:10.996Z,55.90
2023-04-07T15:44:28.165Z,55.00
2023-04-07T15:48:46.003Z,55.30
2023-04-07T15:53:07.346Z,54.50
2023-04-07T15:57:24.736Z,54.50
2023-04-07T16:01:42.099Z,54.60
2023-04-07T16:05:59.503Z,54.30
2023-04-07T16:10:19.686Z,55.60
2023-04-07T16:14:37.088Z,55.30
2023-04-07T16:18:54.246Z,55.40
2023-04-07T16:23:11.502Z,56.70
2023-04-07T16:27:29.682Z,57.60
2023-04-07T16:31:46.787Z,59.00
2023-04-07T16:36:04.155Z,59.00
2023-04-07T16:40:21.420Z,58.90
2023-04-07T16:44:38.507Z,59.40
2023-04-07T16:48:55.791Z,58.90
2023-04-07T16:53:12.932Z,58.50
2023-04-07T16:57:30.144Z,58.70
2023-04-07T17:01:47.337Z,59.10
2023-04-07T17:06:07.708Z,59.70
2023-04-07T17:10:24.897Z,60.20
2023-04-07T17:14:42.212Z,61.40
2023-04-07T17:18:59.357Z,62.60
2023-04-07T17:23:16.569Z,64.60
2023-04-07T17:27:33.825Z,63.50
2023-04-07T17:31:50.937Z,64.20
2023-04-07T17:36:08.066Z,64.50
2023-04-07T17:40:25.298Z,66.50
2023-04-07T17:44:43.069Z,65.40
2023-04-07T17:49:00.546Z,66.60
2023-04-07T17:53:19.615Z,67.20
2023-04-07T17:57:36.833Z,67.20
2023-04-07T18:01:54.190Z,68.50
2023-04-07T18:06:16.529Z,68.20
2023-04-07T18:10:33.641Z,69.20
2023-04-07T18:14:50.846Z,70.20
2023-04-07T18:19:08.014Z,71.40
2023-04-07T18:23:25.138Z,73.20
2023-04-07T18:27:42.613Z,74.30
2023-04-07T18:31:59.710Z,75.90
2023-04-07T18:36:16.952Z,77.60
2023-04-07T18:40:35.354Z,80.50
2023-04-07T18:44:52.545Z,77.40
2023-04-07T18:49:10.294Z,79.40
2023-04-07T18:53:27.498Z,81.30
2023-04-07T18:57:44.600Z,83.40
2023-04-07T19:02:01.818Z,81.80
2023-04-07T19:06:19.036Z,84.70
2023-04-07T19:10:36.176Z,84.30
2023-04-07T19:14:53.327Z,86.50
2023-04-07T19:19:11.659Z,89.10
2023-04-07T19:23:30.426Z,90.00
2023-04-07T19:27:47.972Z,90.90
2023-04-07T19:32:05.860Z,90.80
2023-04-07T19:36:23.120Z,91.90
2023-04-07T19:40:40.346Z,92.50
2023-04-07T19:45:00.272Z,94.80
2023-04-07T19:49:17.476Z,96.90
2023-04-07T19:53:34.712Z,98.40
2023-04-07T19:57:51.919Z,99.90
2023-04-07T20:02:09.208Z,99.90
2023-04-07T20:06:27.199Z,99.90
2023-04-07T20:10:44.316Z,99.90
2023-04-07T20:15:03.038Z,99.90
2023-04-07T20:19:20.049Z,99.90
2023-04-07T20:23:37.744Z,99.90
2023-04-07T20:27:54.994Z,99.90
2023-04-07T20:32:12.269Z,99.90
2023-04-07T20:36:29.384Z,99.90
2023-04-07T20:40:46.695Z,99.90
2023-04-07T20:45:06.277Z,99.90
2023-04-07T20:49:23.375Z,99.90
2023-04-07T20:53:40.929Z,99.90
2023-04-07T20:57:58.061Z,99.90
2023-04-07T21:02:15.859Z,99.90
2023-04-07T21:06:33.413Z,99.90
2023-04-07T21:10:52.319Z,99.90
2023-04-07T21:15:09.705Z,99.90
2023-04-07T21:19:26.761Z,99.90
2023-04-07T21:23:43.868Z,99.90
2023-04-07T21:28:01.075Z,99.90
2023-04-07T21:32:18.619Z,99.90
2023-04-07T21:36:35.824Z,99.90
2023-04-07T21:40:52.960Z,99.90
2023-04-07T21:45:10.735Z,99.90
2023-04-07T21:49:27.880Z,99.90
2023-04-07T21:53:45.353Z,99.90
2023-04-07T21:58:02.520Z,99.90
2023-04-07T22:02:19.772Z,99.90
2023-04-07T22:06:37.009Z,99.90
2023-04-07T22:10:54.512Z,99.90
2023-04-07T22:15:12.904Z,99.90
2023-04-07T22:19:30.122Z,99.90
2023-04-07T22:23:47.323Z,99.90
2023-04-07T22:28:04.450Z,99.90
2023-04-07T22:32:21.649Z,99.90
2023-04-07T22:36:38.868Z,99.90
2023-04-07T22:40:56.125Z,99.90
2023-04-07T22:45:13.408Z,99.90
2023-04-07T22:49:30.882Z,99.90
2023-04-07T22:53:48.156Z,99.90
2023-04-07T22:58:05.618Z,99.90
2023-04-07T23:02:23.171Z,99.90
2023-04-07T23:06:43.310Z,99.90
2023-04-07T23:11:00.432Z,99.90
2023-04-07T23:15:17.651Z,99.90
2023-04-07T23:19:34.760Z,99.90
2023-04-07T23:23:52.619Z,99.90
2023-04-07T23:28:09.804Z,99.90
2023-04-07T23:32:27.039Z,99.90
2023-04-07T23:36:44.603Z,99.90
2023-04-07T23:41:01.972Z,99.90
2023-04-07T23:45:20.618Z,99.90
2023-04-07T23:49:37.849Z,99.90
2023-04-07T23:53:55.400Z,99.90
2023-04-07T23:58:12.491Z,99.90
